首页
METAR-TAF:

METAR-TAF

机场 :

默特尔比奇, 南卡罗来纳州, 美国

纬度: 33-41N, 经度: 078-56W, 海拔: 8米

当前天气观测

该预报发布于54分钟前的17:56 UTC
风速10节,风向东南
温度 18°C
湿度 73%
气压 1025 hPa
能見度: 16.1公里
阴天层高于8500英尺

METAR: KMYR 231756Z 14010KT 10SM OVC085 18/13 A3026 RMK AO2 SLP248 T01830128 10189 20133 58037

时间: 13:50 (18:50 UTC)

预报

该预报发布于1小时和30分钟前的17:20 UTC
预报有效从23日的 18点(UTC)到 24日的 18点(UTC)
风速9节,风向东转东南
能見度: 10公里
多云层高于6000英尺
从 23日的 2300点(UTC)
风速13节,风向南转南东
能見度: 10公里
阴天层高于3500英尺
从 24日的 1000点(UTC)
风速17节,风向南转西南,有时为25节阵风
能見度: 10公里
阴天层高于4000英尺
附近有阵雨
从 24日的 1200点(UTC)
风速18节,风向南转西南,有时为28节阵风
能見度: 6.4公里
多云层高于1600英尺
阵雨
短暂存在
从 24日的 14点(UTC)到 24日的 17点(UTC)
能見度: 1.6公里
多云层高于400英尺
大阵雨, 轻雾

TAF: KMYR 231720Z 2318/2418 12009KT P6SM BKN060 FM232300 16013KT P6SM OVC035 FM241000 20017G25KT P6SM VCSH OVC040 FM241200 20018G28KT 4SM SHRA BKN016 TEMPO 2414/2417 1SM +SHRA BR BKN004

超过4000个机场的气象观测和天气预报(METAR&TAF报告)。

可查询的气象台以黄色和红色小点在地图上表示。

将鼠标移到小点上方,可查看气象台名称。

然后点击查看天气观测和预报。

如需切换地图:点击带黑十字的绿色按钮放大地图;点击带横线的绿色按钮缩小地图;或者点击绿色箭头查看邻近地区的地图。


METAR-TAF: